sensor_id;sensor_type;location;lat;lon;timestamp;P1;durP1;ratioP1;P2;durP2;ratioP2
19221;SDS011;9745;50.828;4.378;2024-03-07T00:02:10;21.10;;;11.77;;
19221;SDS011;9745;50.828;4.378;2024-03-07T00:04:36;21.27;;;12.20;;
19221;SDS011;9745;50.828;4.378;2024-03-07T00:07:02;23.33;;;12.73;;
19221;SDS011;9745;50.828;4.378;2024-03-07T00:09:31;22.77;;;12.70;;
19221;SDS011;9745;50.828;4.378;2024-03-07T00:11:58;23.37;;;14.07;;
19221;SDS011;9745;50.828;4.378;2024-03-07T00:14:24;26.20;;;14.87;;
19221;SDS011;9745;50.828;4.378;2024-03-07T00:16:56;26.70;;;15.00;;
19221;SDS011;9745;50.828;4.378;2024-03-07T00:19:22;27.33;;;14.40;;
19221;SDS011;9745;50.828;4.378;2024-03-07T00:21:52;27.77;;;15.43;;
19221;SDS011;9745;50.828;4.378;2024-03-07T00:24:18;26.60;;;16.00;;
19221;SDS011;9745;50.828;4.378;2024-03-07T00:26:44;29.60;;;15.87;;
19221;SDS011;9745;50.828;4.378;2024-03-07T00:29:10;38.13;;;17.37;;
19221;SDS011;9745;50.828;4.378;2024-03-07T00:31:36;31.77;;;17.97;;
19221;SDS011;9745;50.828;4.378;2024-03-07T00:34:02;32.10;;;17.77;;
19221;SDS011;9745;50.828;4.378;2024-03-07T00:36:28;32.90;;;18.97;;
19221;SDS011;9745;50.828;4.378;2024-03-07T00:38:54;37.20;;;20.10;;
19221;SDS011;9745;50.828;4.378;2024-03-07T00:41:20;41.77;;;22.80;;
19221;SDS011;9745;50.828;4.378;2024-03-07T00:43:46;37.83;;;21.03;;
19221;SDS011;9745;50.828;4.378;2024-03-07T00:46:12;47.87;;;23.73;;
19221;SDS011;9745;50.828;4.378;2024-03-07T00:48:38;43.27;;;23.30;;
19221;SDS011;9745;50.828;4.378;2024-03-07T00:51:05;44.23;;;21.90;;
19221;SDS011;9745;50.828;4.378;2024-03-07T00:53:31;39.20;;;22.07;;
19221;SDS011;9745;50.828;4.378;2024-03-07T00:55:57;41.43;;;22.17;;
19221;SDS011;9745;50.828;4.378;2024-03-07T00:58:23;44.43;;;24.17;;
19221;SDS011;9745;50.828;4.378;2024-03-07T01:00:50;43.83;;;22.90;;
19221;SDS011;9745;50.828;4.378;2024-03-07T01:03:16;43.63;;;23.03;;
19221;SDS011;9745;50.828;4.378;2024-03-07T01:05:42;38.23;;;21.97;;
19221;SDS011;9745;50.828;4.378;2024-03-07T01:08:08;44.97;;;23.37;;
19221;SDS011;9745;50.828;4.378;2024-03-07T01:10:34;44.63;;;23.50;;
19221;SDS011;9745;50.828;4.378;2024-03-07T01:13:01;43.53;;;22.57;;
19221;SDS011;9745;50.828;4.378;2024-03-07T01:15:30;40.20;;;21.90;;
19221;SDS011;9745;50.828;4.378;2024-03-07T01:17:57;43.83;;;22.90;;
19221;SDS011;9745;50.828;4.378;2024-03-07T01:20:23;44.80;;;22.80;;
19221;SDS011;9745;50.828;4.378;2024-03-07T01:22:50;43.40;;;23.47;;
19221;SDS011;9745;50.828;4.378;2024-03-07T01:25:16;44.87;;;24.37;;
19221;SDS011;9745;50.828;4.378;2024-03-07T01:27:42;43.63;;;23.57;;
19221;SDS011;9745;50.828;4.378;2024-03-07T01:30:09;45.93;;;25.10;;
19221;SDS011;9745;50.828;4.378;2024-03-07T01:32:35;50.03;;;24.67;;
19221;SDS011;9745;50.828;4.378;2024-03-07T01:35:01;50.83;;;27.67;;
19221;SDS011;9745;50.828;4.378;2024-03-07T01:37:27;52.90;;;27.87;;
19221;SDS011;9745;50.828;4.378;2024-03-07T01:39:53;50.77;;;26.73;;
19221;SDS011;9745;50.828;4.378;2024-03-07T01:42:20;50.80;;;27.47;;
19221;SDS011;9745;50.828;4.378;2024-03-07T01:44:46;55.50;;;27.77;;
19221;SDS011;9745;50.828;4.378;2024-03-07T01:47:12;56.87;;;31.50;;
19221;SDS011;9745;50.828;4.378;2024-03-07T01:49:40;57.67;;;29.60;;
19221;SDS011;9745;50.828;4.378;2024-03-07T01:52:06;58.37;;;29.83;;
19221;SDS011;9745;50.828;4.378;2024-03-07T01:54:33;56.30;;;30.33;;
19221;SDS011;9745;50.828;4.378;2024-03-07T01:56:59;60.33;;;30.07;;
19221;SDS011;9745;50.828;4.378;2024-03-07T01:59:26;67.10;;;32.50;;
19221;SDS011;9745;50.828;4.378;2024-03-07T02:01:54;59.60;;;31.30;;
19221;SDS011;9745;50.828;4.378;2024-03-07T02:04:21;67.63;;;33.17;;
19221;SDS011;9745;50.828;4.378;2024-03-07T02:06:47;62.03;;;31.13;;
19221;SDS011;9745;50.828;4.378;2024-03-07T02:09:13;57.67;;;31.20;;
19221;SDS011;9745;50.828;4.378;2024-03-07T02:11:39;66.60;;;34.47;;
19221;SDS011;9745;50.828;4.378;2024-03-07T02:14:05;63.73;;;32.07;;
19221;SDS011;9745;50.828;4.378;2024-03-07T02:16:31;57.53;;;31.10;;
19221;SDS011;9745;50.828;4.378;2024-03-07T02:18:57;63.50;;;32.50;;
19221;SDS011;9745;50.828;4.378;2024-03-07T02:21:24;61.60;;;32.40;;
19221;SDS011;9745;50.828;4.378;2024-03-07T02:23:50;64.50;;;33.70;;
19221;SDS011;9745;50.828;4.378;2024-03-07T02:26:16;63.60;;;33.83;;
19221;SDS011;9745;50.828;4.378;2024-03-07T02:28:43;61.60;;;32.00;;
19221;SDS011;9745;50.828;4.378;2024-03-07T02:31:09;64.73;;;33.10;;
19221;SDS011;9745;50.828;4.378;2024-03-07T02:33:36;64.10;;;32.97;;
19221;SDS011;9745;50.828;4.378;2024-03-07T02:36:02;73.60;;;33.97;;
19221;SDS011;9745;50.828;4.378;2024-03-07T02:38:28;61.90;;;32.73;;
19221;SDS011;9745;50.828;4.378;2024-03-07T02:40:54;68.33;;;34.67;;
19221;SDS011;9745;50.828;4.378;2024-03-07T02:43:21;63.20;;;33.37;;
19221;SDS011;9745;50.828;4.378;2024-03-07T02:45:47;67.67;;;33.70;;
19221;SDS011;9745;50.828;4.378;2024-03-07T02:48:14;66.83;;;33.47;;
19221;SDS011;9745;50.828;4.378;2024-03-07T02:50:40;74.33;;;35.47;;
19221;SDS011;9745;50.828;4.378;2024-03-07T02:53:06;66.70;;;34.23;;
19221;SDS011;9745;50.828;4.378;2024-03-07T02:55:33;71.43;;;34.30;;
19221;SDS011;9745;50.828;4.378;2024-03-07T02:57:59;72.53;;;35.13;;
19221;SDS011;9745;50.828;4.378;2024-03-07T03:00:25;68.97;;;34.53;;
19221;SDS011;9745;50.828;4.378;2024-03-07T03:02:57;62.43;;;34.03;;
19221;SDS011;9745;50.828;4.378;2024-03-07T03:05:23;67.67;;;34.23;;
19221;SDS011;9745;50.828;4.378;2024-03-07T03:07:49;74.33;;;35.00;;
19221;SDS011;9745;50.828;4.378;2024-03-07T03:10:22;70.07;;;33.97;;
19221;SDS011;9745;50.828;4.378;2024-03-07T03:12:51;74.87;;;36.60;;
19221;SDS011;9745;50.828;4.378;2024-03-07T03:15:17;70.50;;;34.67;;
19221;SDS011;9745;50.828;4.378;2024-03-07T03:17:45;63.80;;;33.43;;
19221;SDS011;9745;50.828;4.378;2024-03-07T03:20:11;69.87;;;34.73;;
19221;SDS011;9745;50.828;4.378;2024-03-07T03:23:07;72.93;;;35.87;;
19221;SDS011;9745;50.828;4.378;2024-03-07T03:25:38;64.80;;;34.37;;
19221;SDS011;9745;50.828;4.378;2024-03-07T03:28:07;73.70;;;34.13;;
19221;SDS011;9745;50.828;4.378;2024-03-07T03:30:36;66.03;;;33.13;;
19221;SDS011;9745;50.828;4.378;2024-03-07T03:33:02;75.77;;;35.27;;
19221;SDS011;9745;50.828;4.378;2024-03-07T03:35:28;63.47;;;33.97;;
19221;SDS011;9745;50.828;4.378;2024-03-07T03:37:54;68.13;;;35.23;;
19221;SDS011;9745;50.828;4.378;2024-03-07T03:40:20;66.83;;;34.33;;
19221;SDS011;9745;50.828;4.378;2024-03-07T03:42:46;73.13;;;35.33;;
19221;SDS011;9745;50.828;4.378;2024-03-07T03:45:13;72.43;;;34.30;;
19221;SDS011;9745;50.828;4.378;2024-03-07T03:47:41;66.60;;;34.30;;
19221;SDS011;9745;50.828;4.378;2024-03-07T03:50:08;72.07;;;35.50;;
19221;SDS011;9745;50.828;4.378;2024-03-07T03:52:34;70.80;;;36.47;;
19221;SDS011;9745;50.828;4.378;2024-03-07T03:55:01;76.80;;;37.50;;
19221;SDS011;9745;50.828;4.378;2024-03-07T03:57:28;77.47;;;38.13;;
19221;SDS011;9745;50.828;4.378;2024-03-07T03:59:58;82.70;;;36.80;;
19221;SDS011;9745;50.828;4.378;2024-03-07T04:02:24;76.93;;;37.50;;
19221;SDS011;9745;50.828;4.378;2024-03-07T04:04:50;77.43;;;37.87;;
19221;SDS011;9745;50.828;4.378;2024-03-07T04:07:18;75.20;;;37.33;;
19221;SDS011;9745;50.828;4.378;2024-03-07T04:09:44;83.43;;;38.90;;
19221;SDS011;9745;50.828;4.378;2024-03-07T04:12:10;79.97;;;39.73;;
19221;SDS011;9745;50.828;4.378;2024-03-07T04:14:39;75.63;;;37.37;;
19221;SDS011;9745;50.828;4.378;2024-03-07T04:17:06;84.87;;;38.70;;
19221;SDS011;9745;50.828;4.378;2024-03-07T04:19:34;83.53;;;39.13;;
19221;SDS011;9745;50.828;4.378;2024-03-07T04:22:00;82.90;;;40.23;;
19221;SDS011;9745;50.828;4.378;2024-03-07T04:24:28;77.67;;;37.13;;
19221;SDS011;9745;50.828;4.378;2024-03-07T04:26:54;89.53;;;40.07;;
19221;SDS011;9745;50.828;4.378;2024-03-07T04:29:20;85.30;;;40.77;;
19221;SDS011;9745;50.828;4.378;2024-03-07T04:31:46;79.93;;;38.83;;
19221;SDS011;9745;50.828;4.378;2024-03-07T04:34:12;83.00;;;39.83;;
19221;SDS011;9745;50.828;4.378;2024-03-07T04:36:38;78.67;;;38.90;;
19221;SDS011;9745;50.828;4.378;2024-03-07T04:39:04;77.20;;;38.33;;
19221;SDS011;9745;50.828;4.378;2024-03-07T04:41:35;85.63;;;40.03;;
19221;SDS011;9745;50.828;4.378;2024-03-07T04:44:01;82.30;;;38.40;;
19221;SDS011;9745;50.828;4.378;2024-03-07T04:46:27;84.13;;;40.40;;
19221;SDS011;9745;50.828;4.378;2024-03-07T04:48:53;81.20;;;39.03;;
19221;SDS011;9745;50.828;4.378;2024-03-07T04:51:19;84.17;;;39.43;;
19221;SDS011;9745;50.828;4.378;2024-03-07T04:53:45;83.43;;;40.90;;
19221;SDS011;9745;50.828;4.378;2024-03-07T04:56:11;89.93;;;42.07;;
19221;SDS011;9745;50.828;4.378;2024-03-07T04:58:39;86.87;;;41.47;;
19221;SDS011;9745;50.828;4.378;2024-03-07T05:01:05;84.23;;;40.77;;
19221;SDS011;9745;50.828;4.378;2024-03-07T05:03:31;81.47;;;38.93;;
19221;SDS011;9745;50.828;4.378;2024-03-07T05:05:57;83.20;;;39.47;;
19221;SDS011;9745;50.828;4.378;2024-03-07T05:08:25;91.90;;;40.97;;
19221;SDS011;9745;50.828;4.378;2024-03-07T05:10:51;91.60;;;42.70;;
19221;SDS011;9745;50.828;4.378;2024-03-07T05:13:17;90.47;;;43.13;;
19221;SDS011;9745;50.828;4.378;2024-03-07T05:15:43;93.47;;;43.23;;
19221;SDS011;9745;50.828;4.378;2024-03-07T05:18:09;88.10;;;40.77;;
19221;SDS011;9745;50.828;4.378;2024-03-07T05:20:37;91.20;;;41.67;;
19221;SDS011;9745;50.828;4.378;2024-03-07T05:23:03;99.60;;;45.03;;
19221;SDS011;9745;50.828;4.378;2024-03-07T05:25:30;113.07;;;46.27;;
19221;SDS011;9745;50.828;4.378;2024-03-07T05:27:56;114.70;;;47.07;;
19221;SDS011;9745;50.828;4.378;2024-03-07T05:30:22;113.30;;;45.13;;
19221;SDS011;9745;50.828;4.378;2024-03-07T05:32:50;117.63;;;49.07;;
19221;SDS011;9745;50.828;4.378;2024-03-07T05:35:16;116.03;;;47.60;;
19221;SDS011;9745;50.828;4.378;2024-03-07T05:37:42;118.90;;;48.23;;
19221;SDS011;9745;50.828;4.378;2024-03-07T05:40:12;124.30;;;48.07;;
19221;SDS011;9745;50.828;4.378;2024-03-07T05:42:38;122.50;;;49.00;;
19221;SDS011;9745;50.828;4.378;2024-03-07T05:45:04;120.27;;;50.83;;
19221;SDS011;9745;50.828;4.378;2024-03-07T05:47:32;132.83;;;50.93;;
19221;SDS011;9745;50.828;4.378;2024-03-07T05:49:58;143.77;;;49.93;;
19221;SDS011;9745;50.828;4.378;2024-03-07T05:52:24;121.60;;;47.83;;
19221;SDS011;9745;50.828;4.378;2024-03-07T05:54:50;119.60;;;48.67;;
19221;SDS011;9745;50.828;4.378;2024-03-07T05:57:16;128.63;;;49.60;;
19221;SDS011;9745;50.828;4.378;2024-03-07T05:59:42;115.57;;;47.33;;
19221;SDS011;9745;50.828;4.378;2024-03-07T06:02:09;122.63;;;48.23;;
19221;SDS011;9745;50.828;4.378;2024-03-07T06:04:39;118.43;;;47.23;;
19221;SDS011;9745;50.828;4.378;2024-03-07T06:07:05;122.77;;;48.80;;
19221;SDS011;9745;50.828;4.378;2024-03-07T06:09:31;112.50;;;47.37;;
19221;SDS011;9745;50.828;4.378;2024-03-07T06:11:57;118.80;;;46.97;;
19221;SDS011;9745;50.828;4.378;2024-03-07T06:14:23;119.03;;;48.37;;
19221;SDS011;9745;50.828;4.378;2024-03-07T06:16:49;108.80;;;47.83;;
19221;SDS011;9745;50.828;4.378;2024-03-07T06:19:17;119.23;;;46.43;;
19221;SDS011;9745;50.828;4.378;2024-03-07T06:21:42;106.97;;;45.43;;
19221;SDS011;9745;50.828;4.378;2024-03-07T06:24:09;110.43;;;45.83;;
19221;SDS011;9745;50.828;4.378;2024-03-07T06:26:37;101.93;;;44.23;;
19221;SDS011;9745;50.828;4.378;2024-03-07T06:29:09;110.57;;;47.87;;
19221;SDS011;9745;50.828;4.378;2024-03-07T06:31:39;109.10;;;44.97;;
19221;SDS011;9745;50.828;4.378;2024-03-07T06:34:06;99.10;;;41.97;;
19221;SDS011;9745;50.828;4.378;2024-03-07T06:36:33;104.70;;;44.30;;
19221;SDS011;9745;50.828;4.378;2024-03-07T06:38:59;96.37;;;42.83;;
19221;SDS011;9745;50.828;4.378;2024-03-07T06:41:25;101.70;;;45.43;;
19221;SDS011;9745;50.828;4.378;2024-03-07T06:43:51;94.53;;;42.07;;
19221;SDS011;9745;50.828;4.378;2024-03-07T06:46:20;98.90;;;43.10;;
19221;SDS011;9745;50.828;4.378;2024-03-07T06:48:46;103.47;;;43.70;;
19221;SDS011;9745;50.828;4.378;2024-03-07T06:51:12;104.20;;;45.70;;
19221;SDS011;9745;50.828;4.378;2024-03-07T06:53:38;96.17;;;39.27;;
19221;SDS011;9745;50.828;4.378;2024-03-07T06:56:04;103.60;;;44.57;;
19221;SDS011;9745;50.828;4.378;2024-03-07T06:58:31;101.63;;;42.13;;
19221;SDS011;9745;50.828;4.378;2024-03-07T07:00:57;100.83;;;41.70;;
19221;SDS011;9745;50.828;4.378;2024-03-07T07:03:25;97.77;;;41.53;;
19221;SDS011;9745;50.828;4.378;2024-03-07T07:05:53;88.33;;;39.40;;
19221;SDS011;9745;50.828;4.378;2024-03-07T07:08:19;90.43;;;40.87;;
19221;SDS011;9745;50.828;4.378;2024-03-07T07:10:46;92.17;;;40.73;;
19221;SDS011;9745;50.828;4.378;2024-03-07T07:13:13;87.50;;;38.67;;
19221;SDS011;9745;50.828;4.378;2024-03-07T07:15:39;88.50;;;38.67;;
19221;SDS011;9745;50.828;4.378;2024-03-07T07:18:06;83.77;;;39.47;;
19221;SDS011;9745;50.828;4.378;2024-03-07T07:20:32;94.67;;;39.90;;
19221;SDS011;9745;50.828;4.378;2024-03-07T07:22:59;85.20;;;39.90;;
19221;SDS011;9745;50.828;4.378;2024-03-07T07:25:28;87.13;;;38.43;;
19221;SDS011;9745;50.828;4.378;2024-03-07T07:27:54;88.80;;;37.37;;
19221;SDS011;9745;50.828;4.378;2024-03-07T07:30:21;87.30;;;38.40;;
19221;SDS011;9745;50.828;4.378;2024-03-07T07:32:51;87.57;;;39.47;;
19221;SDS011;9745;50.828;4.378;2024-03-07T07:35:18;83.73;;;38.63;;
19221;SDS011;9745;50.828;4.378;2024-03-07T07:37:46;86.10;;;37.87;;
19221;SDS011;9745;50.828;4.378;2024-03-07T07:40:13;84.40;;;38.63;;
19221;SDS011;9745;50.828;4.378;2024-03-07T07:42:40;85.10;;;39.73;;
19221;SDS011;9745;50.828;4.378;2024-03-07T07:45:07;85.80;;;39.00;;
19221;SDS011;9745;50.828;4.378;2024-03-07T07:47:36;80.17;;;36.70;;
19221;SDS011;9745;50.828;4.378;2024-03-07T07:50:02;87.07;;;38.57;;
19221;SDS011;9745;50.828;4.378;2024-03-07T07:52:32;87.40;;;39.90;;
19221;SDS011;9745;50.828;4.378;2024-03-07T07:54:58;91.07;;;38.63;;
19221;SDS011;9745;50.828;4.378;2024-03-07T07:57:24;83.47;;;38.07;;
19221;SDS011;9745;50.828;4.378;2024-03-07T07:59:52;77.63;;;35.27;;
19221;SDS011;9745;50.828;4.378;2024-03-07T08:02:18;83.53;;;37.47;;
19221;SDS011;9745;50.828;4.378;2024-03-07T08:04:43;84.57;;;37.07;;
19221;SDS011;9745;50.828;4.378;2024-03-07T08:07:09;81.70;;;37.70;;
19221;SDS011;9745;50.828;4.378;2024-03-07T08:09:35;82.47;;;36.30;;
19221;SDS011;9745;50.828;4.378;2024-03-07T08:12:01;78.57;;;36.80;;
19221;SDS011;9745;50.828;4.378;2024-03-07T08:14:27;76.93;;;35.33;;
19221;SDS011;9745;50.828;4.378;2024-03-07T08:16:54;81.37;;;37.53;;
19221;SDS011;9745;50.828;4.378;2024-03-07T08:19:21;82.13;;;37.03;;
19221;SDS011;9745;50.828;4.378;2024-03-07T08:21:49;83.97;;;35.63;;
19221;SDS011;9745;50.828;4.378;2024-03-07T08:24:15;80.60;;;34.67;;
19221;SDS011;9745;50.828;4.378;2024-03-07T08:26:41;73.30;;;34.67;;
19221;SDS011;9745;50.828;4.378;2024-03-07T08:29:09;66.73;;;34.00;;
19221;SDS011;9745;50.828;4.378;2024-03-07T08:31:36;70.63;;;33.57;;
19221;SDS011;9745;50.828;4.378;2024-03-07T08:34:03;76.20;;;35.37;;
19221;SDS011;9745;50.828;4.378;2024-03-07T08:36:29;72.47;;;33.70;;
19221;SDS011;9745;50.828;4.378;2024-03-07T08:38:55;79.37;;;33.10;;
19221;SDS011;9745;50.828;4.378;2024-03-07T08:41:21;64.97;;;31.53;;
19221;SDS011;9745;50.828;4.378;2024-03-07T08:43:47;70.50;;;33.13;;
19221;SDS011;9745;50.828;4.378;2024-03-07T08:46:14;74.87;;;33.03;;
19221;SDS011;9745;50.828;4.378;2024-03-07T08:48:40;73.07;;;33.80;;
19221;SDS011;9745;50.828;4.378;2024-03-07T08:51:06;72.23;;;32.37;;
19221;SDS011;9745;50.828;4.378;2024-03-07T08:53:32;65.63;;;31.77;;
19221;SDS011;9745;50.828;4.378;2024-03-07T08:55:58;68.13;;;33.60;;
19221;SDS011;9745;50.828;4.378;2024-03-07T08:58:26;71.57;;;33.90;;
19221;SDS011;9745;50.828;4.378;2024-03-07T09:00:53;73.53;;;34.13;;
19221;SDS011;9745;50.828;4.378;2024-03-07T09:03:19;70.67;;;32.60;;
19221;SDS011;9745;50.828;4.378;2024-03-07T09:05:46;73.93;;;34.87;;
19221;SDS011;9745;50.828;4.378;2024-03-07T09:08:12;74.93;;;32.80;;
19221;SDS011;9745;50.828;4.378;2024-03-07T09:10:38;72.73;;;33.70;;
19221;SDS011;9745;50.828;4.378;2024-03-07T09:13:06;74.90;;;33.77;;
19221;SDS011;9745;50.828;4.378;2024-03-07T09:15:32;74.60;;;32.97;;
19221;SDS011;9745;50.828;4.378;2024-03-07T09:17:58;70.50;;;33.43;;
19221;SDS011;9745;50.828;4.378;2024-03-07T09:20:28;69.10;;;31.97;;
19221;SDS011;9745;50.828;4.378;2024-03-07T09:22:56;74.47;;;33.53;;
19221;SDS011;9745;50.828;4.378;2024-03-07T09:25:22;65.73;;;33.83;;
19221;SDS011;9745;50.828;4.378;2024-03-07T09:27:49;69.00;;;32.33;;
19221;SDS011;9745;50.828;4.378;2024-03-07T09:30:15;73.33;;;32.50;;
19221;SDS011;9745;50.828;4.378;2024-03-07T09:32:44;70.43;;;32.70;;
19221;SDS011;9745;50.828;4.378;2024-03-07T09:35:10;56.43;;;31.17;;
19221;SDS011;9745;50.828;4.378;2024-03-07T09:37:37;68.57;;;33.27;;
19221;SDS011;9745;50.828;4.378;2024-03-07T09:40:03;62.97;;;31.77;;
19221;SDS011;9745;50.828;4.378;2024-03-07T09:42:29;63.57;;;31.53;;
19221;SDS011;9745;50.828;4.378;2024-03-07T09:44:56;64.63;;;31.97;;
19221;SDS011;9745;50.828;4.378;2024-03-07T09:47:24;55.60;;;30.73;;
19221;SDS011;9745;50.828;4.378;2024-03-07T09:49:51;64.03;;;30.67;;
19221;SDS011;9745;50.828;4.378;2024-03-07T09:52:17;60.03;;;31.00;;
19221;SDS011;9745;50.828;4.378;2024-03-07T09:54:44;64.83;;;32.10;;
19221;SDS011;9745;50.828;4.378;2024-03-07T09:57:10;59.93;;;30.30;;
19221;SDS011;9745;50.828;4.378;2024-03-07T09:59:36;60.30;;;31.10;;
19221;SDS011;9745;50.828;4.378;2024-03-07T10:02:05;60.47;;;30.37;;
19221;SDS011;9745;50.828;4.378;2024-03-07T10:07:02;60.77;;;31.90;;
19221;SDS011;9745;50.828;4.378;2024-03-07T10:09:29;66.73;;;33.17;;
19221;SDS011;9745;50.828;4.378;2024-03-07T10:12:00;57.73;;;29.60;;
19221;SDS011;9745;50.828;4.378;2024-03-07T10:14:27;59.63;;;32.50;;
19221;SDS011;9745;50.828;4.378;2024-03-07T10:16:53;63.87;;;33.20;;
19221;SDS011;9745;50.828;4.378;2024-03-07T10:19:23;66.53;;;32.90;;
19221;SDS011;9745;50.828;4.378;2024-03-07T10:21:50;65.67;;;32.97;;
19221;SDS011;9745;50.828;4.378;2024-03-07T10:24:25;70.10;;;33.10;;
19221;SDS011;9745;50.828;4.378;2024-03-07T10:26:52;68.73;;;33.37;;
19221;SDS011;9745;50.828;4.378;2024-03-07T10:29:21;60.07;;;31.93;;
19221;SDS011;9745;50.828;4.378;2024-03-07T10:31:48;63.00;;;33.07;;
19221;SDS011;9745;50.828;4.378;2024-03-07T10:34:15;67.27;;;33.97;;
19221;SDS011;9745;50.828;4.378;2024-03-07T10:36:42;60.07;;;30.93;;
19221;SDS011;9745;50.828;4.378;2024-03-07T10:39:08;70.13;;;35.77;;
19221;SDS011;9745;50.828;4.378;2024-03-07T10:41:46;60.00;;;31.20;;
19221;SDS011;9745;50.828;4.378;2024-03-07T10:44:18;66.00;;;32.23;;
19221;SDS011;9745;50.828;4.378;2024-03-07T10:46:46;61.23;;;31.67;;
19221;SDS011;9745;50.828;4.378;2024-03-07T10:49:15;65.33;;;33.27;;
19221;SDS011;9745;50.828;4.378;2024-03-07T10:51:44;58.90;;;32.03;;
19221;SDS011;9745;50.828;4.378;2024-03-07T10:54:24;58.53;;;31.47;;
19221;SDS011;9745;50.828;4.378;2024-03-07T10:57:16;63.70;;;31.73;;
19221;SDS011;9745;50.828;4.378;2024-03-07T10:59:50;59.60;;;32.67;;
19221;SDS011;9745;50.828;4.378;2024-03-07T11:02:27;65.83;;;31.57;;
19221;SDS011;9745;50.828;4.378;2024-03-07T11:04:57;62.30;;;31.00;;
19221;SDS011;9745;50.828;4.378;2024-03-07T11:07:24;60.40;;;30.17;;
19221;SDS011;9745;50.828;4.378;2024-03-07T11:09:51;58.20;;;30.67;;
19221;SDS011;9745;50.828;4.378;2024-03-07T11:12:19;56.60;;;31.17;;
19221;SDS011;9745;50.828;4.378;2024-03-07T11:14:45;59.03;;;30.33;;
19221;SDS011;9745;50.828;4.378;2024-03-07T11:17:12;54.13;;;29.57;;
19221;SDS011;9745;50.828;4.378;2024-03-07T11:19:39;53.10;;;27.67;;
19221;SDS011;9745;50.828;4.378;2024-03-07T11:22:05;48.93;;;28.53;;
19221;SDS011;9745;50.828;4.378;2024-03-07T11:24:40;50.70;;;27.67;;
19221;SDS011;9745;50.828;4.378;2024-03-07T11:27:08;52.37;;;29.20;;
19221;SDS011;9745;50.828;4.378;2024-03-07T11:29:38;48.47;;;27.53;;
19221;SDS011;9745;50.828;4.378;2024-03-07T11:32:11;45.30;;;26.03;;
19221;SDS011;9745;50.828;4.378;2024-03-07T11:34:38;50.50;;;27.63;;
19221;SDS011;9745;50.828;4.378;2024-03-07T11:37:08;46.00;;;26.37;;
19221;SDS011;9745;50.828;4.378;2024-03-07T11:39:46;42.13;;;25.13;;
19221;SDS011;9745;50.828;4.378;2024-03-07T11:42:19;41.63;;;25.17;;
19221;SDS011;9745;50.828;4.378;2024-03-07T11:44:46;49.63;;;27.17;;
19221;SDS011;9745;50.828;4.378;2024-03-07T11:47:12;45.37;;;26.00;;
19221;SDS011;9745;50.828;4.378;2024-03-07T11:49:38;43.93;;;23.43;;
19221;SDS011;9745;50.828;4.378;2024-03-07T11:52:04;36.70;;;22.30;;
19221;SDS011;9745;50.828;4.378;2024-03-07T11:54:38;35.97;;;21.50;;
19221;SDS011;9745;50.828;4.378;2024-03-07T11:57:20;38.50;;;22.63;;
19221;SDS011;9745;50.828;4.378;2024-03-07T11:59:57;34.47;;;21.07;;
19221;SDS011;9745;50.828;4.378;2024-03-07T12:02:26;34.87;;;21.60;;
19221;SDS011;9745;50.828;4.378;2024-03-07T12:04:52;34.83;;;20.97;;
19221;SDS011;9745;50.828;4.378;2024-03-07T12:07:18;35.00;;;22.53;;
19221;SDS011;9745;50.828;4.378;2024-03-07T12:09:47;33.67;;;21.07;;
19221;SDS011;9745;50.828;4.378;2024-03-07T12:12:18;33.33;;;20.57;;
19221;SDS011;9745;50.828;4.378;2024-03-07T12:14:46;36.03;;;22.03;;
19221;SDS011;9745;50.828;4.378;2024-03-07T12:17:12;42.80;;;23.23;;
19221;SDS011;9745;50.828;4.378;2024-03-07T12:19:40;40.60;;;23.00;;
19221;SDS011;9745;50.828;4.378;2024-03-07T12:22:09;35.43;;;22.33;;
19221;SDS011;9745;50.828;4.378;2024-03-07T12:24:47;38.60;;;21.13;;
19221;SDS011;9745;50.828;4.378;2024-03-07T12:27:14;33.50;;;21.40;;
19221;SDS011;9745;50.828;4.378;2024-03-07T12:29:41;31.07;;;20.23;;
19221;SDS011;9745;50.828;4.378;2024-03-07T12:32:08;35.40;;;19.90;;
19221;SDS011;9745;50.828;4.378;2024-03-07T12:34:42;34.10;;;21.27;;
19221;SDS011;9745;50.828;4.378;2024-03-07T12:37:11;34.23;;;18.77;;
19221;SDS011;9745;50.828;4.378;2024-03-07T12:39:41;34.90;;;20.93;;
19221;SDS011;9745;50.828;4.378;2024-03-07T12:42:26;31.80;;;20.27;;
19221;SDS011;9745;50.828;4.378;2024-03-07T12:44:56;36.27;;;21.23;;
19221;SDS011;9745;50.828;4.378;2024-03-07T12:47:24;41.07;;;23.50;;
19221;SDS011;9745;50.828;4.378;2024-03-07T12:49:51;36.63;;;22.27;;
19221;SDS011;9745;50.828;4.378;2024-03-07T12:52:17;31.97;;;21.73;;
19221;SDS011;9745;50.828;4.378;2024-03-07T12:54:43;34.50;;;21.93;;
19221;SDS011;9745;50.828;4.378;2024-03-07T12:57:12;30.53;;;19.93;;
19221;SDS011;9745;50.828;4.378;2024-03-07T12:59:38;35.90;;;21.03;;
19221;SDS011;9745;50.828;4.378;2024-03-07T13:02:08;34.10;;;21.40;;
19221;SDS011;9745;50.828;4.378;2024-03-07T13:04:34;34.10;;;22.10;;
19221;SDS011;9745;50.828;4.378;2024-03-07T13:07:02;33.37;;;22.57;;
19221;SDS011;9745;50.828;4.378;2024-03-07T13:09:32;34.07;;;21.37;;
19221;SDS011;9745;50.828;4.378;2024-03-07T13:11:58;36.90;;;21.80;;
19221;SDS011;9745;50.828;4.378;2024-03-07T13:14:28;35.37;;;22.47;;
19221;SDS011;9745;50.828;4.378;2024-03-07T13:16:57;33.60;;;21.77;;
19221;SDS011;9745;50.828;4.378;2024-03-07T13:19:25;35.40;;;22.77;;
19221;SDS011;9745;50.828;4.378;2024-03-07T13:21:51;42.80;;;23.17;;
19221;SDS011;9745;50.828;4.378;2024-03-07T13:24:18;36.90;;;22.33;;
19221;SDS011;9745;50.828;4.378;2024-03-07T13:26:45;31.93;;;20.73;;
19221;SDS011;9745;50.828;4.378;2024-03-07T13:29:13;44.87;;;20.97;;
19221;SDS011;9745;50.828;4.378;2024-03-07T13:31:39;31.63;;;20.90;;
19221;SDS011;9745;50.828;4.378;2024-03-07T13:34:08;34.77;;;21.37;;
19221;SDS011;9745;50.828;4.378;2024-03-07T13:36:38;35.73;;;21.20;;
19221;SDS011;9745;50.828;4.378;2024-03-07T13:39:05;36.47;;;20.47;;
19221;SDS011;9745;50.828;4.378;2024-03-07T13:41:35;30.93;;;20.17;;
19221;SDS011;9745;50.828;4.378;2024-03-07T13:44:02;30.13;;;19.63;;
19221;SDS011;9745;50.828;4.378;2024-03-07T13:46:28;31.77;;;20.93;;
19221;SDS011;9745;50.828;4.378;2024-03-07T13:48:56;31.67;;;20.10;;
19221;SDS011;9745;50.828;4.378;2024-03-07T13:51:31;30.33;;;20.43;;
19221;SDS011;9745;50.828;4.378;2024-03-07T13:54:00;35.17;;;21.57;;
19221;SDS011;9745;50.828;4.378;2024-03-07T13:56:46;32.63;;;21.37;;
19221;SDS011;9745;50.828;4.378;2024-03-07T13:59:25;32.00;;;20.60;;
19221;SDS011;9745;50.828;4.378;2024-03-07T14:02:14;30.70;;;20.30;;
19221;SDS011;9745;50.828;4.378;2024-03-07T14:12:32;33.83;;;20.17;;
19221;SDS011;9745;50.828;4.378;2024-03-07T14:23:25;34.77;;;21.43;;
19221;SDS011;9745;50.828;4.378;2024-03-07T14:26:13;32.50;;;20.40;;
19221;SDS011;9745;50.828;4.378;2024-03-07T14:29:01;30.50;;;19.03;;
19221;SDS011;9745;50.828;4.378;2024-03-07T14:31:30;30.63;;;19.47;;
19221;SDS011;9745;50.828;4.378;2024-03-07T14:36:36;29.93;;;18.93;;
19221;SDS011;9745;50.828;4.378;2024-03-07T14:39:03;28.73;;;18.17;;
19221;SDS011;9745;50.828;4.378;2024-03-07T14:44:14;28.23;;;18.27;;
19221;SDS011;9745;50.828;4.378;2024-03-07T14:46:40;28.80;;;17.70;;
19221;SDS011;9745;50.828;4.378;2024-03-07T14:49:06;26.43;;;16.80;;
19221;SDS011;9745;50.828;4.378;2024-03-07T14:51:33;27.03;;;18.37;;
19221;SDS011;9745;50.828;4.378;2024-03-07T14:53:59;27.47;;;17.60;;
19221;SDS011;9745;50.828;4.378;2024-03-07T14:56:28;27.17;;;17.07;;
19221;SDS011;9745;50.828;4.378;2024-03-07T14:58:54;25.90;;;17.47;;
19221;SDS011;9745;50.828;4.378;2024-03-07T15:01:20;24.43;;;16.50;;